createdAt,value
2022-12-26T00:02:22.977Z,24.13
2022-12-26T00:05:07.663Z,22.37
2022-12-26T00:07:51.529Z,25.67
2022-12-26T00:10:35.340Z,23.83
2022-12-26T00:13:39.122Z,23.00
2022-12-26T00:16:23.551Z,22.80
2022-12-26T00:19:08.864Z,23.60
2022-12-26T00:21:53.117Z,23.27
2022-12-26T00:24:36.970Z,22.77
2022-12-26T00:27:20.896Z,20.57
2022-12-26T00:30:05.353Z,22.80
2022-12-26T00:32:49.299Z,21.53
2022-12-26T00:35:34.445Z,18.63
2022-12-26T00:38:18.257Z,20.67
2022-12-26T00:41:02.383Z,21.63
2022-12-26T00:43:46.392Z,21.10
2022-12-26T00:46:30.358Z,22.27
2022-12-26T00:49:14.312Z,22.77
2022-12-26T00:51:59.500Z,17.47
2022-12-26T00:54:43.567Z,22.20
2022-12-26T00:57:27.384Z,14.63
2022-12-26T01:00:12.249Z,17.13
2022-12-26T01:02:56.193Z,18.70
2022-12-26T01:05:43.096Z,18.77
2022-12-26T01:08:28.334Z,20.50
2022-12-26T01:11:14.681Z,18.37
2022-12-26T01:13:58.595Z,18.40
2022-12-26T07:13:52.847Z,25.20
2022-12-26T07:16:39.340Z,28.10
2022-12-26T07:19:23.476Z,30.73
2022-12-26T07:22:07.544Z,17.40
2022-12-26T07:24:51.517Z,17.03
2022-12-26T07:27:35.557Z,25.13
2022-12-26T07:30:19.781Z,22.77
2022-12-26T07:33:05.088Z,25.87
2022-12-26T07:35:49.133Z,17.57
2022-12-26T07:38:34.421Z,13.33
2022-12-26T07:41:35.933Z,9.67
2022-12-26T07:44:19.815Z,12.67
2022-12-26T07:47:03.792Z,8.83
2022-12-26T07:49:49.070Z,11.57
2022-12-26T07:52:32.863Z,10.67
2022-12-26T07:55:17.003Z,15.23
2022-12-26T07:58:00.710Z,11.10
2022-12-26T08:00:44.607Z,45.73
2022-12-26T08:03:28.472Z,14.17
2022-12-26T08:06:13.779Z,17.03
2022-12-26T08:08:57.568Z,11.73
2022-12-26T08:11:41.457Z,14.27
2022-12-26T08:14:25.763Z,14.47
2022-12-26T08:17:09.935Z,10.07
2022-12-26T08:19:53.867Z,10.23
2022-12-26T08:22:39.057Z,9.53
2022-12-26T08:25:22.828Z,13.37
2022-12-26T08:28:06.779Z,17.13
2022-12-26T08:30:50.964Z,15.00
2022-12-26T08:33:36.001Z,15.60
2022-12-26T08:36:19.825Z,20.93
2022-12-26T08:39:05.289Z,18.90
2022-12-26T08:41:49.136Z,37.17
2022-12-26T08:44:34.171Z,40.23
2022-12-26T08:47:18.002Z,25.47
2022-12-26T08:50:01.850Z,18.57
2022-12-26T08:52:46.788Z,19.67
2022-12-26T08:55:31.934Z,12.13
2022-12-26T08:58:16.003Z,25.10
2022-12-26T09:01:08.313Z,50.87
2022-12-26T09:03:53.856Z,112.40
2022-12-26T09:06:39.296Z,177.23
2022-12-26T09:09:23.355Z,156.87
2022-12-26T09:12:08.843Z,173.83
2022-12-26T09:14:52.773Z,108.30
2022-12-26T09:17:36.850Z,114.33
2022-12-26T09:20:20.708Z,73.77
2022-12-26T09:23:04.636Z,62.13
2022-12-26T09:25:48.359Z,86.63
2022-12-26T09:28:34.151Z,88.87
2022-12-26T09:31:21.611Z,84.17
2022-12-26T09:34:07.688Z,79.47
2022-12-26T09:36:51.808Z,60.33
2022-12-26T09:39:36.259Z,48.37
2022-12-26T09:42:29.675Z,50.33
2022-12-26T09:45:17.162Z,40.13
2022-12-26T09:48:07.769Z,42.53
2022-12-26T09:50:53.327Z,34.43
2022-12-26T09:53:41.976Z,29.93
2022-12-26T09:59:35.641Z,25.73
2022-12-26T10:02:23.648Z,49.17
2022-12-26T10:05:08.555Z,31.53
2022-12-26T10:07:59.452Z,18.47
2022-12-26T10:10:49.745Z,19.13
2022-12-26T10:13:41.125Z,28.10
2022-12-26T10:16:34.395Z,24.20
2022-12-26T10:19:33.065Z,5.67
2022-12-26T10:22:37.896Z,9.30
2022-12-26T10:25:26.353Z,6.07
2022-12-26T10:28:19.626Z,9.17
2022-12-26T10:31:07.559Z,8.07
2022-12-26T10:33:57.609Z,4.40
2022-12-26T10:36:47.183Z,6.50
2022-12-26T10:39:35.724Z,6.20
2022-12-26T10:42:25.704Z,6.50
2022-12-26T10:45:17.351Z,6.57
2022-12-26T10:48:01.171Z,16.37
2022-12-26T10:50:49.687Z,27.90
2022-12-26T10:53:35.582Z,10.83
2022-12-26T10:56:19.908Z,15.57
2022-12-26T10:59:05.913Z,13.10
2022-12-26T11:01:50.282Z,18.00
2022-12-26T11:07:41.644Z,6.70
2022-12-26T11:10:30.301Z,6.07
2022-12-26T11:13:20.511Z,4.63
2022-12-26T11:16:04.691Z,16.13
2022-12-26T11:18:50.751Z,8.40
2022-12-26T11:21:35.354Z,8.33
2022-12-26T11:24:20.867Z,9.03
2022-12-26T11:27:20.272Z,11.97
2022-12-26T11:30:28.857Z,8.60
2022-12-26T11:33:26.895Z,9.00
2022-12-26T11:36:18.349Z,10.03
2022-12-26T11:39:05.560Z,7.47
2022-12-26T11:41:49.690Z,9.80
2022-12-26T11:44:41.230Z,22.13
2022-12-26T11:47:28.335Z,15.63
2022-12-26T11:50:21.333Z,28.57
2022-12-26T11:53:08.123Z,21.50
2022-12-26T11:56:00.894Z,14.57
2022-12-26T11:58:44.851Z,30.80
2022-12-26T12:01:30.057Z,22.50
2022-12-26T12:04:14.135Z,13.50
2022-12-26T12:07:07.719Z,10.63
2022-12-26T12:10:03.031Z,11.53
2022-12-26T12:12:51.140Z,12.73
2022-12-26T12:15:44.456Z,27.67
2022-12-26T12:18:42.879Z,15.37
2022-12-26T12:21:38.204Z,12.63
2022-12-26T12:24:43.967Z,10.37
2022-12-26T12:27:31.646Z,7.10
2022-12-26T12:30:20.457Z,5.83
2022-12-26T12:33:27.228Z,6.60
2022-12-26T12:36:15.186Z,9.40
2022-12-26T12:39:08.097Z,7.07
2022-12-26T12:42:12.078Z,6.53
2022-12-26T12:45:10.663Z,7.47
2022-12-26T12:48:21.418Z,11.20
2022-12-26T12:51:17.609Z,10.07
2022-12-26T12:54:39.680Z,11.60
2022-12-26T12:57:28.549Z,11.03
2022-12-26T13:00:17.344Z,12.93
2022-12-26T13:03:10.521Z,13.13
2022-12-26T13:06:01.085Z,10.63
2022-12-26T13:08:50.372Z,14.17
2022-12-26T13:11:39.816Z,14.87
2022-12-26T13:14:28.251Z,10.40
2022-12-26T13:17:18.917Z,13.60
2022-12-26T13:20:06.774Z,24.40
2022-12-26T13:23:12.715Z,37.07
2022-12-26T13:26:07.534Z,16.73
2022-12-26T13:28:58.019Z,12.90
2022-12-26T13:31:43.036Z,17.37
2022-12-26T13:34:27.187Z,17.50
2022-12-26T13:37:49.635Z,10.70
2022-12-26T13:40:33.754Z,14.40
2022-12-26T13:43:41.536Z,16.87
2022-12-26T13:46:38.305Z,12.77
2022-12-26T13:49:36.027Z,14.20
2022-12-26T13:52:35.070Z,14.73
2022-12-26T13:55:43.286Z,13.77
2022-12-26T13:58:41.197Z,20.13
2022-12-26T14:01:40.305Z,21.13
2022-12-26T14:04:39.446Z,16.43
2022-12-26T14:07:31.402Z,22.03
2022-12-26T14:10:23.135Z,14.50
2022-12-26T14:13:30.953Z,17.17
2022-12-26T14:16:22.989Z,19.40
2022-12-26T14:19:18.206Z,17.80
2022-12-26T14:22:10.669Z,17.80
2022-12-26T14:25:06.032Z,24.70
2022-12-26T14:27:55.423Z,22.27
2022-12-26T14:30:56.214Z,23.33
2022-12-26T14:33:51.744Z,21.60
2022-12-26T14:36:42.124Z,19.90
2022-12-26T14:39:36.799Z,15.80
2022-12-26T14:42:40.827Z,25.57
2022-12-26T14:45:46.379Z,20.77
2022-12-26T14:48:48.894Z,31.37
2022-12-26T14:51:42.042Z,28.97
2022-12-26T14:54:50.863Z,39.70
2022-12-26T14:57:44.492Z,27.73
2022-12-26T15:00:34.497Z,26.67
2022-12-26T15:03:51.999Z,31.27
2022-12-26T15:07:16.818Z,35.67
2022-12-26T15:10:22.590Z,33.40
2022-12-26T15:13:54.397Z,29.47
2022-12-26T15:16:51.288Z,28.53
2022-12-26T15:20:14.073Z,28.60
2022-12-26T15:23:39.573Z,30.10
2022-12-26T15:26:49.872Z,33.80
2022-12-26T15:29:53.114Z,44.17
2022-12-26T15:32:43.755Z,41.10
2022-12-26T15:35:33.764Z,40.93
2022-12-26T15:38:33.339Z,34.73
2022-12-26T15:41:30.913Z,35.53
2022-12-26T15:44:30.122Z,45.80
2022-12-26T15:47:21.503Z,37.87
2022-12-26T15:50:18.858Z,27.83
2022-12-26T15:53:20.448Z,31.07
2022-12-26T15:56:49.482Z,31.77
2022-12-26T15:59:56.713Z,34.50
2022-12-26T16:02:49.383Z,33.37
2022-12-26T16:05:47.009Z,33.03
2022-12-26T16:09:16.951Z,45.53
2022-12-26T16:12:02.571Z,34.43
2022-12-26T16:14:48.761Z,40.60
2022-12-26T16:17:34.149Z,38.20
2022-12-26T16:20:40.685Z,36.40
2022-12-26T16:23:26.783Z,38.40
2022-12-26T16:26:18.522Z,42.73
2022-12-26T16:29:02.696Z,40.93
2022-12-26T16:31:49.325Z,60.70
2022-12-26T16:34:37.039Z,43.30
2022-12-26T16:37:24.613Z,43.73
2022-12-26T16:40:18.293Z,39.57
2022-12-26T16:43:05.626Z,38.33
2022-12-26T16:45:53.137Z,41.13
2022-12-26T16:48:38.575Z,33.10
2022-12-26T16:51:39.549Z,39.40
2022-12-26T16:54:38.108Z,38.13
2022-12-26T16:57:23.241Z,44.10
2022-12-26T17:00:08.121Z,38.53
2022-12-26T17:02:55.100Z,42.30
2022-12-26T17:05:43.983Z,30.77
2022-12-26T17:08:27.893Z,31.10
2022-12-26T17:11:13.302Z,26.57
2022-12-26T17:13:58.599Z,45.33
2022-12-26T17:16:42.459Z,40.80
2022-12-26T17:19:29.879Z,36.87
2022-12-26T17:22:30.605Z,34.17
2022-12-26T17:25:26.452Z,34.50
2022-12-26T17:28:25.050Z,38.40
2022-12-26T17:31:19.628Z,49.47
2022-12-26T17:34:07.928Z,35.90
2022-12-26T17:37:18.272Z,38.00
2022-12-26T17:40:03.807Z,37.37
2022-12-26T17:42:49.559Z,38.40
2022-12-26T17:45:33.403Z,33.30
2022-12-26T17:48:17.445Z,32.17
2022-12-26T17:51:04.454Z,41.13
2022-12-26T17:53:52.283Z,40.10
2022-12-26T17:56:38.061Z,36.73
2022-12-26T17:59:23.769Z,33.30
2022-12-26T18:02:07.684Z,34.83
2022-12-26T18:04:51.700Z,37.53
2022-12-26T18:07:35.668Z,46.83
2022-12-26T18:10:23.071Z,31.63
2022-12-26T18:13:17.187Z,40.17
2022-12-26T18:16:01.466Z,37.87
2022-12-26T18:18:47.397Z,49.23
2022-12-26T18:21:31.690Z,43.10
2022-12-26T18:24:15.656Z,47.73
2022-12-26T18:26:59.629Z,52.80
2022-12-26T18:29:44.978Z,39.33
2022-12-26T18:32:31.109Z,43.00
2022-12-26T18:35:15.944Z,55.67
2022-12-26T18:38:03.302Z,36.90
2022-12-26T18:40:50.284Z,35.80
2022-12-26T18:43:35.202Z,30.43
2022-12-26T18:46:24.070Z,37.23
2022-12-26T18:49:08.039Z,36.97
2022-12-26T18:51:52.685Z,41.83
2022-12-26T18:54:43.364Z,38.37
2022-12-26T18:57:28.927Z,39.97
2022-12-26T19:00:16.867Z,45.77
2022-12-26T19:03:03.888Z,48.43
2022-12-26T19:05:49.084Z,38.20
2022-12-26T19:08:33.462Z,64.67
2022-12-26T19:11:18.460Z,39.17
2022-12-26T19:14:03.609Z,40.67
2022-12-26T19:16:48.362Z,40.47
2022-12-26T19:19:34.424Z,35.77
2022-12-26T19:22:18.683Z,40.23
2022-12-26T19:25:03.451Z,40.07
2022-12-26T19:27:48.613Z,35.13
2022-12-26T19:30:38.490Z,36.87
2022-12-26T19:33:23.033Z,39.90
2022-12-26T19:36:09.669Z,45.50
2022-12-26T19:38:54.679Z,39.27
2022-12-26T19:41:38.645Z,37.67
2022-12-26T19:44:22.814Z,43.47
2022-12-26T19:47:12.714Z,69.40
2022-12-26T19:49:57.111Z,60.40
2022-12-26T19:52:42.932Z,56.90
2022-12-26T19:55:26.775Z,55.00
2022-12-26T19:58:10.680Z,47.93
2022-12-26T20:00:54.722Z,41.80
2022-12-26T20:03:38.743Z,45.77
2022-12-26T20:06:25.444Z,41.10
2022-12-26T20:09:13.405Z,45.20
2022-12-26T20:11:57.996Z,36.43
2022-12-26T20:14:42.036Z,37.90
2022-12-26T20:17:26.093Z,39.70
2022-12-26T20:20:10.878Z,39.60
2022-12-26T20:22:54.926Z,35.63
2022-12-26T20:25:41.329Z,38.13
2022-12-26T20:28:25.238Z,38.83
2022-12-26T20:31:13.154Z,50.80
2022-12-26T20:33:57.890Z,41.23
2022-12-26T20:36:42.750Z,36.90
2022-12-26T20:39:27.301Z,36.57
2022-12-26T20:42:15.795Z,43.43
2022-12-26T20:44:59.643Z,31.13
2022-12-26T20:47:43.533Z,58.83
2022-12-26T20:50:29.506Z,50.40
2022-12-26T20:53:14.089Z,37.87
2022-12-26T20:55:58.712Z,41.77
2022-12-26T20:58:44.203Z,50.50
2022-12-26T21:01:28.828Z,42.03
2022-12-26T21:04:18.387Z,42.67
2022-12-26T21:07:02.331Z,32.43
2022-12-26T21:09:46.861Z,29.33
2022-12-26T21:12:30.724Z,31.57
2022-12-26T21:15:16.346Z,30.87
2022-12-26T21:18:00.341Z,35.57
2022-12-26T21:20:46.073Z,32.53
2022-12-26T21:23:30.011Z,27.03
2022-12-26T21:26:13.964Z,28.43
2022-12-26T21:28:59.886Z,27.43
2022-12-26T21:31:45.431Z,32.40
2022-12-26T21:34:31.787Z,29.17
2022-12-26T21:37:33.174Z,29.70
2022-12-26T21:40:17.046Z,27.67
2022-12-26T21:43:00.869Z,26.73
2022-12-26T21:45:45.285Z,24.30
2022-12-26T21:48:30.550Z,26.93
2022-12-26T21:51:15.239Z,22.97
2022-12-26T21:54:22.941Z,25.93
2022-12-26T21:57:05.729Z,27.60
2022-12-26T21:59:58.746Z,25.17
2022-12-26T22:03:00.244Z,24.53
2022-12-26T22:05:45.523Z,22.10
2022-12-26T22:08:29.437Z,23.53
2022-12-26T22:11:35.883Z,20.13
2022-12-26T22:14:19.644Z,21.10
2022-12-26T22:17:03.428Z,24.50
2022-12-26T22:19:47.187Z,26.13
2022-12-26T22:22:33.138Z,22.67
2022-12-26T22:25:16.953Z,32.67
2022-12-26T22:28:01.390Z,26.50
2022-12-26T22:30:48.673Z,29.07
2022-12-26T22:33:32.849Z,28.30
2022-12-26T22:36:16.655Z,31.13
2022-12-26T22:39:02.315Z,36.23
2022-12-26T22:41:46.816Z,37.87
2022-12-26T22:44:30.532Z,33.00
2022-12-26T22:47:15.475Z,30.13
2022-12-26T22:49:59.385Z,31.07
2022-12-26T22:52:43.376Z,30.40
2022-12-26T22:55:28.551Z,31.23
2022-12-26T22:58:12.397Z,31.17
2022-12-26T23:00:56.982Z,28.33
2022-12-26T23:03:40.957Z,28.23
2022-12-26T23:06:27.118Z,29.50
2022-12-26T23:09:15.514Z,35.73
2022-12-26T23:12:18.477Z,30.13
2022-12-26T23:15:02.465Z,31.37
2022-12-26T23:18:08.083Z,29.50
2022-12-26T23:21:11.441Z,40.77
2022-12-26T23:23:55.767Z,35.17
2022-12-26T23:26:39.740Z,46.20
2022-12-26T23:29:43.316Z,39.47
2022-12-26T23:32:27.138Z,43.87
2022-12-26T23:35:12.635Z,28.03
2022-12-26T23:37:56.467Z,20.50
2022-12-26T23:40:40.327Z,25.67
2022-12-26T23:43:24.204Z,29.87
2022-12-26T23:46:11.819Z,30.07
2022-12-26T23:48:55.676Z,23.90
2022-12-26T23:51:39.472Z,22.77
2022-12-26T23:54:23.325Z,26.20
2022-12-26T23:57:07.256Z,22.77
2022-12-26T23:59:50.981Z,22.17
